Terminal Aerodrome Forecast
Issued by NWS

Home | Current Version | Previous Version | Text Only | Print | Product List | Glossary Off
Versions: 1 2 3 4 5 6 7 8 9 10 11 12 13 14 15

000
FTUS43 KMPX 211138
TAFRWF
TAF
KRWF 211138Z 2112/2212 14009KT P6SM SCT050 BKN100
     FM211600 14013G21KT P6SM BKN120
     FM220000 16009KT P6SM BKN070
     FM220500 23004KT P6SM SCT120
     FM220800 32005KT P6SM SCT150=

USA.gov is the U.S. government's official web portal to all federal, state and local government web resources and services.